Time;durP1;ratioP1;P1;durP2;ratioP2;P2;SDS_P1;SDS_P2;PMS_P1;PMS_P2;Temp;Humidity;BMP_temperature;BMP_pressure;BME280_temperature;BME280_humidity;BME280_pressure;Samples;Min_cycle;Max_cycle;Signal;HPM_P1;HPM_P2
2023/11/15 00:01:22;;;;;;;1.65;1.15;;;231.10;2252.80;;;;;;5040300;28;20029;-86
2023/11/15 00:03:49;;;;;;;1.42;1.08;;;231.10;2252.80;;;;;;5068706;28;20040;-81
2023/11/15 00:06:14;;;;;;;1.52;1.20;;;231.00;2252.80;;;;;;5070147;28;20083;-86
2023/11/15 00:08:40;;;;;;;1.45;1.15;;;231.00;2252.80;;;;;;5070433;28;20096;-83
2023/11/15 00:11:08;;;;;;;2.70;1.50;;;231.00;2252.80;;;;;;5066406;28;20556;-81
2023/11/15 00:13:34;;;;;;;1.50;1.30;;;231.20;2252.80;;;;;;5065116;28;20024;-85
2023/11/15 00:16:00;;;;;;;6.03;1.95;;;231.20;2252.80;;;;;;5065129;28;20032;-83
2023/11/15 00:18:26;;;;;;;2.50;1.13;;;231.30;2252.80;;;;;;5065747;28;20120;-82
2023/11/15 00:20:52;;;;;;;1.05;0.80;;;231.20;2252.80;;;;;;5066058;28;20431;-84
2023/11/15 00:37:15;;;;;;;1.30;1.17;;;231.10;2252.80;;;;;;4836767;29;20067;-85
2023/11/15 00:39:42;;;;;;;1.63;1.25;;;231.10;2252.80;;;;;;4819949;29;20041;-80
2023/11/15 00:43:00;;;;;;;2.72;1.70;;;231.20;2252.80;;;;;;4820443;29;20064;-87
2023/11/15 00:56:41;;;;;;;1.90;1.30;;;231.20;2252.80;;;;;;4731878;30;20055;-86
2023/11/15 01:06:56;;;;;;;1.33;0.93;;;231.00;2252.80;;;;;;4748494;30;20053;-86
2023/11/15 01:10:35;;;;;;;4.60;2.15;;;231.10;2252.80;;;;;;4711300;30;20133;-87
2023/11/15 01:24:52;;;;;;;1.10;0.85;;;231.20;2252.80;;;;;;4729823;30;20087;-88
2023/11/15 01:28:51;;;;;;;1.20;0.90;;;231.10;2252.80;;;;;;4753697;30;20052;-87
2023/11/15 01:31:46;;;;;;;0.95;0.85;;;231.20;2252.80;;;;;;4721791;30;20037;-88
2023/11/15 01:38:37;;;;;;;1.00;0.90;;;231.30;2252.80;;;;;;4793471;30;20093;-88
2023/11/15 01:41:37;;;;;;;1.73;1.08;;;231.20;2252.80;;;;;;4791360;30;20097;-88
2023/11/15 01:45:16;;;;;;;1.52;1.23;;;231.20;2252.80;;;;;;4789133;30;20040;-87
2023/11/15 01:51:56;;;;;;;2.03;1.45;;;231.20;2252.80;;;;;;4753912;30;20051;-87
2023/11/15 01:54:58;;;;;;;1.65;1.10;;;231.00;2252.80;;;;;;4757445;30;20041;-87
2023/11/15 02:15:10;;;;;;;2.40;1.60;;;231.20;2252.80;;;;;;4752313;30;20066;-87
2023/11/15 02:22:20;;;;;;;2.78;1.63;;;231.30;2252.80;;;;;;4787673;30;20050;-87
2023/11/15 02:29:09;;;;;;;1.52;1.42;;;256.10;2252.80;;;;;;4820133;29;20042;-87
2023/11/15 02:35:30;;;;;;;1.65;1.08;;;256.40;2252.80;;;;;;4859141;29;20049;-88
2023/11/15 02:38:30;;;;;;;1.63;1.40;;;256.50;2252.80;;;;;;4843852;29;20038;-87
2023/11/15 02:49:00;;;;;;;1.58;1.02;;;256.50;2252.80;;;;;;4860729;29;20062;-88
2023/11/15 02:55:30;;;;;;;1.73;1.27;;;256.50;2252.80;;;;;;4873363;29;20072;-87
2023/11/15 02:58:43;;;;;;;2.55;1.35;;;256.50;2252.80;;;;;;4899411;29;20146;-88
2023/11/15 03:01:59;;;;;;;3.50;1.30;;;256.60;2252.80;;;;;;4899664;29;20655;-87
2023/11/15 03:05:08;;;;;;;2.28;1.30;;;256.30;2252.80;;;;;;4878006;29;20040;-87
2023/11/15 03:08:51;;;;;;;1.95;1.35;;;256.30;2252.80;;;;;;4861477;29;20026;-88
2023/11/15 03:12:52;;;;;;;2.47;1.55;;;256.40;2252.80;;;;;;4823219;29;20034;-89
2023/11/15 03:19:53;;;;;;;1.23;1.00;;;256.30;2252.80;;;;;;4787218;30;20086;-87
2023/11/15 03:22:57;;;;;;;1.90;1.75;;;256.40;2252.80;;;;;;4777417;30;20050;-89
2023/11/15 03:30:06;;;;;;;2.47;1.58;;;256.60;2252.80;;;;;;4715748;30;20060;-89
2023/11/15 03:43:21;;;;;;;3.35;1.23;;;256.50;2252.80;;;;;;4874309;29;20045;-89
2023/11/15 03:50:37;;;;;;;1.08;0.77;;;256.70;2252.80;;;;;;4823039;29;20050;-89
2023/11/15 04:00:50;;;;;;;0.95;0.82;;;256.80;2252.80;;;;;;4859746;29;20028;-89
2023/11/15 04:04:23;;;;;;;1.65;0.90;;;256.60;2252.80;;;;;;4825244;29;20031;-88
2023/11/15 04:18:09;;;;;;;5.25;1.50;;;256.60;2252.80;;;;;;4816707;29;20045;-89
2023/11/15 04:48:56;;;;;;;2.55;1.50;;;256.60;2252.80;;;;;;4895959;29;20040;-88
2023/11/15 04:55:32;;;;;;;1.58;1.30;;;256.60;2252.80;;;;;;4828857;29;20095;-89
2023/11/15 04:58:46;;;;;;;2.53;1.65;;;256.60;2252.80;;;;;;4887055;29;20039;-88
2023/11/15 05:19:34;;;;;;;1.75;1.33;;;256.70;2252.80;;;;;;4716400;30;20059;-89
2023/11/15 05:22:00;;;;;;;1.55;1.08;;;256.80;2252.80;;;;;;4711245;30;20146;-90
2023/11/15 05:24:26;;;;;;;2.85;1.70;;;256.70;2252.80;;;;;;4735543;30;20049;-89
2023/11/15 05:26:52;;;;;;;1.27;1.05;;;256.70;2252.80;;;;;;4720759;30;20049;-91
2023/11/15 05:29:20;;;;;;;2.10;1.20;;;256.90;2252.80;;;;;;4720374;30;20101;-90
2023/11/15 05:31:46;;;;;;;1.98;1.45;;;307.20;2304.00;;;;;;4716126;30;20081;-91
2023/11/15 05:34:16;;;;;;;1.98;1.65;;;;;;;;;;4752213;30;20053;-92
2023/11/15 05:36:42;;;;;;;2.08;1.65;;;;;;;;;;4755153;30;20033;-91
2023/11/15 05:39:11;;;;;;;2.70;2.05;;;;;;;;;;4766105;30;20027;-91
2023/11/15 05:41:37;;;;;;;3.13;1.88;;;;;;;;;;4800041;29;20049;-90
2023/11/15 05:44:03;;;;;;;1.38;0.95;;;;;;;;;;4882369;29;20040;-90
2023/11/15 05:46:30;;;;;;;2.83;2.55;;;;;;;;;;4881482;29;20037;-90
2023/11/15 05:48:56;;;;;;;2.38;1.92;;;;;;;;;;4897434;29;20045;-91
2023/11/15 05:51:23;;;;;;;1.92;1.55;;;;;;;;;;4927591;29;20040;-92
2023/11/15 05:53:54;;;;;;;2.45;1.60;;;;;;;;;;4993173;28;20063;-90
2023/11/15 05:56:21;;;;;;;1.70;1.33;;;;;;;;;;4963997;28;20042;-91
2023/11/15 05:58:49;;;;;;;1.45;1.30;;;;;;;;;;4979730;28;20038;-90
2023/11/15 06:01:15;;;;;;;1.48;1.08;;;307.20;2304.00;;;;;;4991972;28;20030;-92
2023/11/15 06:03:48;;;;;;;1.17;0.95;;;307.30;2304.00;;;;;;5050987;28;20051;-90
2023/11/15 06:09:51;;;;;;;1.42;1.17;;;;;;;;;;4916238;29;20075;-91
2023/11/15 06:12:19;;;;;;;0.85;0.70;;;358.60;2329.60;;;;;;4919626;29;20041;-89
2023/11/15 06:14:47;;;;;;;1.05;0.80;;;;;;;;;;4904366;29;20086;-92
2023/11/15 06:17:28;;;;;;;1.00;0.80;;;358.90;2329.60;;;;;;4904326;29;20037;-91
2023/11/15 06:19:57;;;;;;;1.40;1.15;;;359.00;2329.60;;;;;;4904377;29;20079;-91
2023/11/15 06:22:27;;;;;;;1.00;0.90;;;384.00;2329.60;;;;;;4898151;29;20060;-92
2023/11/15 06:24:59;;;;;;;2.13;1.13;;;359.20;2329.60;;;;;;4899767;29;20541;-90
2023/11/15 06:27:39;;;;;;;0.63;0.60;;;359.30;2329.60;;;;;;4896686;29;20037;-86
2023/11/15 06:30:29;;;;;;;0.88;0.73;;;359.30;2329.60;;;;;;4895424;29;20033;-90
2023/11/15 06:33:12;;;;;;;0.70;0.70;;;359.10;2329.60;;;;;;4913869;29;20082;-90
2023/11/15 06:36:03;;;;;;;0.90;0.80;;;358.90;2329.60;;;;;;4858568;29;20022;-90
2023/11/15 06:39:12;;;;;;;0.80;0.80;;;358.80;2329.60;;;;;;4816999;29;20038;-91
2023/11/15 06:41:56;;;;;;;0.70;0.70;;;358.70;2329.60;;;;;;4798966;30;20047;-88
2023/11/15 06:44:29;;;;;;;0.80;0.70;;;358.70;2329.60;;;;;;4762751;30;20048;-89
2023/11/15 06:47:08;;;;;;;0.73;0.73;;;358.60;2329.60;;;;;;4755405;30;20037;-91
2023/11/15 06:49:46;;;;;;;1.20;1.10;;;358.50;2329.60;;;;;;4769273;29;20122;-91
2023/11/15 06:52:19;;;;;;;0.95;0.80;;;358.50;2329.60;;;;;;4810461;30;20673;-89
2023/11/15 06:54:49;;;;;;;1.10;0.90;;;358.50;2329.60;;;;;;4820781;29;20042;-89
2023/11/15 06:57:18;;;;;;;0.77;0.70;;;358.50;2329.60;;;;;;4821847;29;20043;-90
2023/11/15 07:00:12;;;;;;;1.08;0.88;;;358.40;2329.60;;;;;;4806657;29;20500;-86
2023/11/15 07:02:44;;;;;;;0.80;0.70;;;358.40;2329.60;;;;;;4811684;30;20107;-89
2023/11/15 07:07:42;;;;;;;0.90;0.77;;;333.70;2329.60;;;;;;5051011;28;20059;-88
2023/11/15 07:10:15;;;;;;;1.10;0.80;;;333.70;2329.60;;;;;;5034121;28;20037;-87
2023/11/15 07:12:43;;;;;;;0.80;0.70;;;333.70;2329.60;;;;;;5049008;28;20040;-89
2023/11/15 07:15:15;;;;;;;1.73;1.15;;;333.60;2329.60;;;;;;5035720;28;20124;-88
2023/11/15 07:17:45;;;;;;;0.77;0.73;;;333.70;2329.60;;;;;;5013277;28;20098;-88
2023/11/15 07:20:13;;;;;;;1.00;0.80;;;333.70;2329.60;;;;;;5013848;28;20062;-89
2023/11/15 07:22:39;;;;;;;1.30;0.95;;;333.70;2329.60;;;;;;4993368;28;20121;-88
2023/11/15 07:25:08;;;;;;;1.00;0.80;;;333.70;2329.60;;;;;;4994552;28;20042;-88
2023/11/15 07:27:34;;;;;;;1.48;1.38;;;358.90;2329.60;;;;;;5007912;28;20102;-88
2023/11/15 07:30:00;;;;;;;1.00;0.90;;;333.60;2329.60;;;;;;4994658;28;20026;-89
2023/11/15 07:32:27;;;;;;;0.60;0.60;;;333.70;2329.60;;;;;;4995147;28;20035;-88
2023/11/15 07:34:54;;;;;;;1.80;1.00;;;333.60;2329.60;;;;;;4995348;28;20035;-88
2023/11/15 07:37:20;;;;;;;0.70;0.70;;;333.60;2329.60;;;;;;4996482;28;20106;-89
2023/11/15 07:39:49;;;;;;;1.00;0.80;;;333.30;2329.60;;;;;;4998077;28;20191;-89
2023/11/15 07:42:17;;;;;;;0.93;0.73;;;333.60;2329.60;;;;;;4997873;28;20034;-90
2023/11/15 07:44:43;;;;;;;0.60;0.60;;;333.50;2329.60;;;;;;4997410;28;20034;-89
2023/11/15 07:47:10;;;;;;;0.80;0.70;;;333.50;2329.60;;;;;;4998300;28;20022;-90
2023/11/15 07:49:36;;;;;;;1.30;0.70;;;333.60;2329.60;;;;;;5034170;28;20536;-90
2023/11/15 07:52:05;;;;;;;1.10;0.85;;;333.40;2329.60;;;;;;5039999;28;20088;-91
2023/11/15 07:54:33;;;;;;;0.80;0.70;;;333.50;2329.60;;;;;;5040295;28;20028;-92
2023/11/15 07:57:03;;;;;;;0.93;0.80;;;333.70;2329.60;;;;;;5023466;28;20036;-89
2023/11/15 07:59:29;;;;;;;1.10;0.80;;;333.40;2329.60;;;;;;5039358;28;20021;-89
2023/11/15 08:01:55;;;;;;;2.30;0.88;;;333.30;2329.60;;;;;;5038772;28;20032;-89
2023/11/15 08:04:21;;;;;;;1.05;0.80;;;333.20;1945.60;;;;;;5038714;28;20028;-89
2023/11/15 08:06:50;;;;;;;1.40;1.10;;;333.20;2329.60;;;;;;5045348;28;20045;-89
2023/11/15 08:09:26;;;;;;;1.08;0.80;;;333.10;2329.60;;;;;;5054439;28;20018;-89
2023/11/15 08:11:55;;;;;;;0.75;0.70;;;333.10;2124.80;;;;;;5055392;28;20377;-89
2023/11/15 08:14:21;;;;;;;1.20;0.80;;;333.00;2329.60;;;;;;5055435;28;20018;-90
2023/11/15 08:16:50;;;;;;;1.20;0.93;;;333.30;2329.60;;;;;;5056511;28;20014;-89
2023/11/15 08:27:08;;;;;;;0.95;0.80;;;332.90;2329.60;;;;;;4998753;28;20485;-87
2023/11/15 08:29:52;;;;;;;1.27;1.10;;;332.90;2329.60;;;;;;4986674;28;20041;-89
2023/11/15 08:32:33;;;;;;;1.00;0.80;;;332.90;2329.60;;;;;;4975284;29;20136;-88
2023/11/15 08:35:00;;;;;;;0.80;0.70;;;332.80;2329.60;;;;;;4955196;29;20046;-92
2023/11/15 08:37:31;;;;;;;1.00;0.80;;;332.90;2329.60;;;;;;4927970;29;20043;-90
2023/11/15 08:40:19;;;;;;;1.30;0.82;;;333.20;2329.60;;;;;;4972877;29;20102;-89
2023/11/15 08:43:31;;;;;;;1.67;1.00;;;332.90;2329.60;;;;;;4955646;29;20039;-88
2023/11/15 08:46:30;;;;;;;0.80;0.73;;;332.90;2329.60;;;;;;4900756;29;20099;-91
2023/11/15 08:49:20;;;;;;;0.90;0.80;;;332.90;2329.60;;;;;;4853002;29;20060;-87
2023/11/15 08:52:54;;;;;;;1.00;0.80;;;332.90;2329.60;;;;;;4851158;29;20038;-87
2023/11/15 08:56:19;;;;;;;1.00;0.80;;;332.90;2329.60;;;;;;4834206;29;20048;-89
2023/11/15 08:59:15;;;;;;;1.08;0.80;;;332.90;2329.60;;;;;;4819272;29;20403;-89
2023/11/15 09:02:27;;;;;;;0.85;0.70;;;332.90;2329.60;;;;;;4815296;29;20518;-89
2023/11/15 09:05:26;;;;;;;0.80;0.70;;;332.90;2329.60;;;;;;4770143;29;20043;-87
2023/11/15 09:08:54;;;;;;;1.25;0.80;;;332.90;2329.60;;;;;;4824914;29;20023;-90
2023/11/15 09:12:03;;;;;;;0.88;0.70;;;332.90;2329.60;;;;;;4754201;30;20112;-91
2023/11/15 09:15:20;;;;;;;0.95;0.77;;;332.90;2329.60;;;;;;4752919;30;20605;-89
2023/11/15 09:18:27;;;;;;;0.85;0.70;;;333.00;2329.60;;;;;;4738496;30;20040;-92
2023/11/15 09:22:10;;;;;;;1.00;0.80;;;333.00;2329.60;;;;;;4737168;30;20059;-91
2023/11/15 09:25:35;;;;;;;0.90;0.70;;;333.00;2329.60;;;;;;4752326;30;20056;-89
2023/11/15 09:42:28;;;;;;;1.30;1.00;;;333.20;2329.60;;;;;;4712111;30;20048;-86
2023/11/15 09:45:23;;;;;;;1.00;0.75;;;333.20;2329.60;;;;;;4726973;30;20450;-89
2023/11/15 09:48:00;;;;;;;0.90;0.80;;;333.20;2329.60;;;;;;4717529;30;20040;-91
2023/11/15 09:57:03;;;;;;;0.98;0.80;;;333.30;2329.60;;;;;;4739941;30;20276;-88
2023/11/15 10:00:20;;;;;;;0.75;0.70;;;333.50;2329.60;;;;;;4731854;30;20048;-87
2023/11/15 10:03:43;;;;;;;1.00;0.90;;;333.20;2329.60;;;;;;4731284;30;20051;-88
2023/11/15 10:20:47;;;;;;;0.77;0.70;;;333.30;2329.60;;;;;;4676385;30;20072;-88
2023/11/15 10:24:15;;;;;;;1.20;0.90;;;333.20;2329.60;;;;;;4647082;30;20052;-87
2023/11/15 10:37:57;;;;;;;0.50;0.50;;;333.20;2329.60;;;;;;4654111;30;20050;-88
2023/11/15 10:41:20;;;;;;;0.88;0.77;;;333.30;2329.60;;;;;;4637774;31;20148;-87
2023/11/15 10:48:06;;;;;;;0.80;0.70;;;333.20;2329.60;;;;;;4679214;30;20072;-88
2023/11/15 10:51:45;;;;;;;1.15;0.95;;;333.20;2329.60;;;;;;4691218;30;20034;-87
2023/11/15 10:58:25;;;;;;;0.75;0.65;;;333.10;2329.60;;;;;;4711609;30;20139;-87
2023/11/15 11:04:46;;;;;;;1.20;0.95;;;333.00;2329.60;;;;;;4678581;30;20041;-87
2023/11/15 11:07:57;;;;;;;0.88;0.70;;;332.90;2329.60;;;;;;4698551;30;20057;-90
2023/11/15 11:11:29;;;;;;;0.90;0.70;;;332.90;2329.60;;;;;;4724436;30;20034;-87
2023/11/15 11:14:49;;;;;;;1.00;0.80;;;332.80;2329.60;;;;;;4679559;30;20111;-87
2023/11/15 11:17:54;;;;;;;0.80;0.70;;;332.80;2329.60;;;;;;4677590;30;20054;-83
2023/11/15 11:49:22;;;;;;;2.38;1.70;;;308.00;2304.00;;;;;;4622459;31;20094;-86
2023/11/15 11:56:21;;;;;;;0.85;0.82;;;307.90;2304.00;;;;;;4591429;31;20043;-88
2023/11/15 11:59:45;;;;;;;0.80;0.70;;;307.90;2304.00;;;;;;4602164;31;20150;-87
2023/11/15 12:03:21;;;;;;;2.03;1.08;;;307.90;2304.00;;;;;;4657871;30;20207;-88
2023/11/15 12:06:42;;;;;;;0.68;0.60;;;307.90;2304.00;;;;;;4673870;30;20050;-88
2023/11/15 12:20:22;;;;;;;1.00;0.80;;;307.90;2304.00;;;;;;4659870;30;20045;-88
2023/11/15 12:23:27;;;;;;;0.60;0.60;;;307.90;2304.00;;;;;;4657456;30;20043;-88
2023/11/15 12:26:30;;;;;;;1.42;1.13;;;307.90;2304.00;;;;;;4618898;31;20501;-83
2023/11/15 12:29:30;;;;;;;1.00;0.80;;;307.90;2304.00;;;;;;4640293;30;20075;-88
2023/11/15 12:33:05;;;;;;;0.90;0.70;;;307.90;2304.00;;;;;;4622926;31;20109;-89
2023/11/15 12:36:41;;;;;;;6.50;0.80;;;307.90;2304.00;;;;;;4615126;31;20039;-88
2023/11/15 12:40:18;;;;;;;0.98;0.88;;;307.90;2304.00;;;;;;4601065;31;20131;-86
2023/11/15 12:46:20;;;;;;;1.15;1.05;;;307.90;2304.00;;;;;;4622820;31;20119;-86
2023/11/15 12:49:02;;;;;;;0.63;0.63;;;307.90;2304.00;;;;;;4623160;31;20048;-88
2023/11/15 12:51:56;;;;;;;0.70;0.70;;;307.90;2304.00;;;;;;4636747;30;20065;-87
2023/11/15 12:54:43;;;;;;;0.88;0.80;;;307.90;2304.00;;;;;;4643415;30;20098;-87
2023/11/15 13:07:42;;;;;;;0.95;0.73;;;307.90;2304.00;;;;;;4670313;30;20135;-88
2023/11/15 13:10:49;;;;;;;0.88;0.85;;;307.90;2304.00;;;;;;4714295;30;20033;-88
2023/11/15 13:17:19;;;;;;;1.10;0.80;;;308.00;2304.00;;;;;;4741469;30;20039;-88
2023/11/15 13:20:41;;;;;;;0.68;0.63;;;308.00;2304.00;;;;;;4756509;30;20032;-87
2023/11/15 13:24:13;;;;;;;0.95;0.75;;;308.00;2304.00;;;;;;4712159;30;20044;-87
2023/11/15 13:30:11;;;;;;;0.90;0.70;;;282.20;2278.40;;;;;;4673335;30;20046;-87
2023/11/15 13:33:17;;;;;;;0.80;0.65;;;308.10;2304.00;;;;;;4651896;30;20051;-88
2023/11/15 13:36:44;;;;;;;0.60;0.60;;;308.10;2304.00;;;;;;4696910;30;20568;-89
2023/11/15 13:39:56;;;;;;;1.70;1.13;;;308.10;2304.00;;;;;;4649638;30;20051;-88
2023/11/15 13:42:33;;;;;;;1.13;0.85;;;308.10;2304.00;;;;;;4633156;31;20047;-86
2023/11/15 13:45:26;;;;;;;1.52;1.15;;;308.10;2304.00;;;;;;4691485;30;20128;-85
2023/11/15 13:48:16;;;;;;;1.00;0.80;;;308.10;2304.00;;;;;;4693065;30;20038;-89
2023/11/15 13:50:53;;;;;;;1.00;0.80;;;308.10;2304.00;;;;;;4696783;30;20109;-88
2023/11/15 13:53:40;;;;;;;0.90;0.80;;;308.10;2304.00;;;;;;4681218;30;20049;-91
2023/11/15 13:56:12;;;;;;;0.90;0.80;;;308.10;2304.00;;;;;;4689368;30;20038;-87
2023/11/15 13:59:06;;;;;;;1.20;0.98;;;308.10;2304.00;;;;;;4722755;30;20036;-87
2023/11/15 14:02:15;;;;;;;0.65;0.60;;;308.10;2304.00;;;;;;4713306;30;20530;-88
2023/11/15 14:04:42;;;;;;;1.40;0.82;;;308.10;2304.00;;;;;;4720785;30;20044;-85
2023/11/15 14:07:10;;;;;;;9.18;1.30;;;308.00;2304.00;;;;;;4751920;30;20523;-86
2023/11/15 14:09:45;;;;;;;1.48;0.93;;;308.10;2304.00;;;;;;4807381;29;20042;-87
2023/11/15 14:12:39;;;;;;;0.98;0.88;;;308.10;2304.00;;;;;;4830851;29;20102;-87
2023/11/15 14:16:05;;;;;;;1.35;0.95;;;308.10;2304.00;;;;;;4826017;29;20426;-86
2023/11/15 14:19:11;;;;;;;0.70;0.70;;;308.10;2304.00;;;;;;4805234;29;20048;-87
2023/11/15 14:21:56;;;;;;;0.85;0.70;;;308.00;2304.00;;;;;;4812646;29;20035;-84
2023/11/15 14:25:31;;;;;;;0.75;0.70;;;308.00;2304.00;;;;;;4797600;29;20514;-88
2023/11/15 14:28:55;;;;;;;1.90;1.13;;;308.00;2304.00;;;;;;4769984;30;20036;-90
2023/11/15 14:31:56;;;;;;;1.60;1.20;;;308.00;2304.00;;;;;;4779581;29;20501;-88
2023/11/15 14:35:00;;;;;;;1.17;0.80;;;307.80;2304.00;;;;;;4752808;30;20060;-88
2023/11/15 14:38:11;;;;;;;1.17;0.88;;;307.90;2304.00;;;;;;4744521;30;20037;-90
2023/11/15 14:41:23;;;;;;;1.35;0.95;;;307.90;2304.00;;;;;;4743755;30;20417;-88
2023/11/15 14:47:51;;;;;;;1.45;1.00;;;307.80;2304.00;;;;;;4695539;30;20156;-89
2023/11/15 14:51:32;;;;;;;0.63;0.60;;;307.80;2304.00;;;;;;4699087;30;20040;-89
2023/11/15 14:54:42;;;;;;;1.10;1.00;;;307.70;2304.00;;;;;;4763310;30;20453;-89
2023/11/15 14:57:56;;;;;;;0.90;0.80;;;307.70;2304.00;;;;;;4748383;30;20044;-89
2023/11/15 15:00:49;;;;;;;1.50;1.10;;;307.70;2304.00;;;;;;4740416;30;20048;-88
2023/11/15 15:03:19;;;;;;;1.25;1.00;;;307.60;2304.00;;;;;;4739694;30;20040;-89
2023/11/15 15:06:40;;;;;;;1.80;1.23;;;307.60;2304.00;;;;;;4780545;30;20044;-89
2023/11/15 15:10:07;;;;;;;2.00;1.55;;;307.40;2304.00;;;;;;4765025;30;20093;-86
2023/11/15 15:13:24;;;;;;;2.13;1.45;;;307.60;2304.00;;;;;;4764482;30;20036;-90
2023/11/15 15:16:13;;;;;;;1.20;0.90;;;307.30;2304.00;;;;;;4742348;30;20114;-88
2023/11/15 15:22:16;;;;;;;0.75;0.68;;;307.30;2304.00;;;;;;4746956;30;20044;-87
2023/11/15 15:25:29;;;;;;;0.80;0.70;;;307.30;2304.00;;;;;;4750327;30;20045;-87
2023/11/15 15:28:33;;;;;;;0.75;0.70;;;307.20;2304.00;;;;;;4720407;30;20041;-88
2023/11/15 15:54:48;;;;;;;1.73;1.20;;;307.40;2304.00;;;;;;4739913;30;20056;-87
2023/11/15 15:57:33;;;;;;;1.17;1.00;;;307.20;2304.00;;;;;;4725848;30;20521;-85
2023/11/15 16:00:16;;;;;;;0.82;0.73;;;307.20;2304.00;;;;;;4759863;30;20036;-86
2023/11/15 16:03:22;;;;;;;1.63;1.02;;;307.20;2304.00;;;;;;4676627;30;20046;-86
2023/11/15 16:06:30;;;;;;;1.25;1.00;;;307.20;2304.00;;;;;;4668887;30;20046;-87
2023/11/15 16:09:23;;;;;;;0.85;0.70;;;307.20;2304.00;;;;;;4680998;30;20042;-83
2023/11/15 16:12:51;;;;;;;2.35;1.23;;;282.50;2278.40;;;;;;4673987;30;20039;-88
2023/11/15 16:15:31;;;;;;;1.00;0.77;;;307.20;2304.00;;;;;;4668186;30;20129;-85
2023/11/15 16:18:07;;;;;;;1.17;1.02;;;307.30;2304.00;;;;;;4712562;30;20116;-87
2023/11/15 16:20:46;;;;;;;1.30;1.13;;;307.30;2304.00;;;;;;4719942;30;20037;-85
2023/11/15 16:23:18;;;;;;;1.17;0.93;;;307.30;2304.00;;;;;;4721468;30;20139;-87
2023/11/15 16:25:57;;;;;;;2.00;1.70;;;307.30;2304.00;;;;;;4720981;30;20052;-85
2023/11/15 16:29:08;;;;;;;1.48;1.10;;;307.30;2304.00;;;;;;4709105;30;20037;-87
2023/11/15 16:32:12;;;;;;;1.25;1.13;;;307.30;2304.00;;;;;;4735136;30;20048;-89
2023/11/15 16:35:40;;;;;;;1.42;1.23;;;307.30;2304.00;;;;;;4738407;30;20136;-88
2023/11/15 16:39:04;;;;;;;1.05;0.95;;;307.20;2304.00;;;;;;4696909;30;20110;-87
2023/11/15 16:42:09;;;;;;;3.22;0.95;;;307.20;2304.00;;;;;;4720841;30;20048;-87
2023/11/15 16:45:38;;;;;;;1.10;0.88;;;307.20;2304.00;;;;;;4743177;30;20061;-88
2023/11/15 16:49:00;;;;;;;1.00;0.80;;;307.20;2304.00;;;;;;4703124;30;20036;-88
2023/11/15 16:52:23;;;;;;;1.23;1.05;;;282.50;2278.40;;;;;;4761192;30;20104;-90
2023/11/15 16:55:56;;;;;;;4.03;0.88;;;282.50;2278.40;;;;;;4777941;30;20046;-87
2023/11/15 17:03:05;;;;;;;1.10;0.85;;;282.50;2278.40;;;;;;4761410;30;20086;-90
2023/11/15 17:06:26;;;;;;;1.23;1.13;;;282.50;2278.40;;;;;;4707698;30;20101;-86
2023/11/15 17:08:57;;;;;;;1.05;0.95;;;282.50;2278.40;;;;;;4709426;30;20036;-87
2023/11/15 17:11:58;;;;;;;2.65;1.45;;;282.40;2278.40;;;;;;4717955;30;20036;-89
2023/11/15 17:14:56;;;;;;;0.90;0.85;;;282.40;2278.40;;;;;;4768374;23;20020;-86
2023/11/15 17:17:51;;;;;;;1.63;1.02;;;307.40;2304.00;;;;;;4948689;29;20047;-88
2023/11/15 17:23:10;;;;;;;2.92;1.15;;;282.40;2278.40;;;;;;4971538;29;20125;-91
2023/11/15 17:26:01;;;;;;;1.20;0.82;;;282.30;2278.40;;;;;;4968376;29;20031;-89
2023/11/15 17:28:33;;;;;;;1.58;1.20;;;282.30;2278.40;;;;;;4973393;29;20038;-89
2023/11/15 17:31:18;;;;;;;1.00;0.80;;;282.40;2278.40;;;;;;4953761;29;20035;-89
2023/11/15 17:33:55;;;;;;;0.65;0.60;;;282.40;2278.40;;;;;;4972142;29;20046;-85
2023/11/15 17:36:44;;;;;;;1.38;1.13;;;282.40;2278.40;;;;;;4920769;29;20036;-90
2023/11/15 17:39:14;;;;;;;0.85;0.70;;;282.50;2278.40;;;;;;4920681;29;20064;-89
2023/11/15 17:42:02;;;;;;;1.20;1.10;;;282.50;2278.40;;;;;;4930477;29;20038;-88
2023/11/15 17:44:29;;;;;;;2.08;1.20;;;282.50;2278.40;;;;;;4948543;29;20107;-89
2023/11/15 17:47:45;;;;;;;1.42;1.00;;;282.50;2278.40;;;;;;4957514;29;20039;-89
2023/11/15 17:50:40;;;;;;;1.33;1.08;;;282.50;2278.40;;;;;;4870425;29;20034;-87
2023/11/15 17:55:55;;;;;;;2.22;1.33;;;282.20;2278.40;;;;;;5052339;28;20037;-89
2023/11/15 17:59:04;;;;;;;0.82;0.77;;;282.20;2278.40;;;;;;5032454;28;20041;-90
2023/11/15 18:01:33;;;;;;;1.70;1.10;;;282.30;2278.40;;;;;;5034271;23;20036;-89
2023/11/15 18:04:13;;;;;;;1.58;1.20;;;;;;;;;;5031058;28;20054;-90
2023/11/15 18:06:56;;;;;;;1.05;0.85;;;;;;;;;;5030477;28;20068;-90
2023/11/15 18:09:22;;;;;;;1.25;1.10;;;;;;;;;;5000488;28;20097;-87
2023/11/15 18:12:02;;;;;;;1.58;1.08;;;;;;;;;;4996403;28;20052;-87
2023/11/15 18:14:28;;;;;;;1.60;1.27;;;;;;;;;;5014868;28;20026;-88
2023/11/15 18:16:55;;;;;;;1.02;0.85;;;;;;;;;;4996060;28;20042;-89
2023/11/15 18:19:57;;;;;;;1.20;1.05;;;;;;;;;;5004137;28;20045;-89
2023/11/15 18:22:25;;;;;;;1.25;0.95;;;;;;;;;;4992871;28;20086;-90
2023/11/15 18:24:53;;;;;;;0.80;0.70;;;;;;;;;;4957797;29;20034;-91
2023/11/15 18:27:21;;;;;;;1.00;0.90;;;;;;;;;;4917894;29;20052;-91
2023/11/15 18:29:52;;;;;;;7.18;1.52;;;;;;;;;;4888067;29;20041;-92
2023/11/15 18:32:21;;;;;;;1.23;0.90;;;;;;;;;;4903151;29;20186;-93
2023/11/15 18:34:47;;;;;;;1.38;1.00;;;;;;;;;;5406827;23;20124;-91
2023/11/15 18:37:40;;;;;;;2.05;1.10;;;;;;;;;;5076851;28;20029;-92
2023/11/15 18:40:11;;;;;;;1.55;0.98;;;;;;;;;;5064344;28;20032;-91
2023/11/15 18:43:05;;;;;;;0.80;0.75;;;;;;;;;;5183403;22;20133;-87
2023/11/15 18:45:37;;;;;;;0.70;0.65;;;;;;;;;;5002059;28;20042;-89
2023/11/15 18:48:09;;;;;;;0.85;0.75;;;;;;;;;;5034740;28;20029;-91
2023/11/15 18:50:36;;;;;;;0.85;0.80;;;;;;;;;;5005400;28;20038;-90
2023/11/15 18:53:09;;;;;;;1.47;0.97;;;;;;;;;;5038133;28;20018;-91
2023/11/15 18:55:45;;;;;;;0.77;0.70;;;;;;;;;;5006028;28;20026;-91
2023/11/15 18:58:20;;;;;;;0.60;0.60;;;;;;;;;;5020803;28;20030;-91
2023/11/15 19:00:49;;;;;;;0.90;0.80;;;;;;;;;;4977914;29;20016;-91
2023/11/15 19:03:16;;;;;;;0.60;0.60;;;;;;;;;;4945862;29;20140;-91
2023/11/15 19:08:30;;;;;;;2.03;1.75;;;;;;;;;;4964899;29;20025;-90
2023/11/15 19:11:27;;;;;;;1.10;0.90;;;;;;;;;;4978232;29;20035;-89
2023/11/15 19:14:23;;;;;;;1.00;0.80;;;;;;;;;;4978337;29;20034;-90
2023/11/15 19:22:24;;;;;;;0.93;0.80;;;;;;;;;;5280030;23;20145;-92
2023/11/15 19:25:25;;;;;;;2.22;1.05;;;;;;;;;;4950089;29;20039;-91
2023/11/15 19:28:14;;;;;;;0.93;0.73;;;;;;;;;;4924078;29;20040;-90
2023/11/15 19:30:43;;;;;;;1.98;1.25;;;;;;;;;;4938769;29;20036;-91
2023/11/15 19:33:19;;;;;;;1.30;1.00;;;;;;;;;;4922079;29;20032;-89
2023/11/15 19:38:38;;;;;;;1.38;1.27;;;;;;;;;;4937619;29;20056;-92
2023/11/15 19:41:24;;;;;;;1.02;0.82;;;;;;;;;;4891875;29;20036;-91
2023/11/15 19:43:55;;;;;;;1.23;0.93;;;;;;;;;;4892981;29;20062;-91
2023/11/15 19:46:28;;;;;;;1.50;1.40;;;;;;;;;;4906586;29;20040;-88
2023/11/15 19:49:21;;;;;;;0.80;0.70;;;;;;;;;;4827664;29;20680;-91
2023/11/15 19:55:58;;;;;;;0.82;0.70;;;;;;;;;;4806891;30;20046;-89
2023/11/15 20:21:29;;;;;;;0.77;0.70;;;;;;;;;;4991796;28;20085;-91
2023/11/15 20:24:39;;;;;;;0.90;0.80;;;;;;;;;;4963411;28;20110;-90
2023/11/15 20:27:50;;;;;;;0.80;0.70;;;;;;;;;;4973985;28;20031;-90
2023/11/15 20:30:35;;;;;;;1.42;1.17;;;;;;;;;;4988154;28;20042;-91
2023/11/15 20:33:45;;;;;;;1.15;0.93;;;;;;;;;;4987287;28;20030;-90
2023/11/15 20:36:53;;;;;;;1.00;0.80;;;;;;;;;;4987264;28;20557;-88
2023/11/15 20:40:05;;;;;;;0.68;0.63;;;;;;;;;;4928868;29;20071;-89
2023/11/15 20:43:10;;;;;;;1.00;0.80;;;;;;;;;;4907878;29;20039;-90
2023/11/15 20:52:14;;;;;;;0.80;0.70;;;;;;;;;;4913540;29;20047;-90
2023/11/15 20:55:28;;;;;;;1.38;1.05;;;;;;;;;;4919091;29;20041;-89
2023/11/15 20:58:56;;;;;;;1.92;1.05;;;;;;;;;;4927226;29;20024;-92
2023/11/15 21:02:11;;;;;;;3.50;1.40;;;;;;;;;;4880280;29;20030;-91
2023/11/15 21:04:55;;;;;;;1.58;0.98;;;;;;;;;;4857141;29;20038;-90
2023/11/15 21:07:44;;;;;;;1.25;0.90;;;;;;;;;;4880124;29;20026;-90
2023/11/15 21:10:16;;;;;;;1.17;0.90;;;;;;;;;;4880025;29;20033;-90
2023/11/15 21:12:42;;;;;;;1.52;1.00;;;;;;;;;;4892267;29;20037;-90
2023/11/15 21:15:13;;;;;;;2.60;1.48;;;;;;;;;;4892356;29;20069;-86
2023/11/15 21:17:49;;;;;;;0.93;0.70;;;;;;;;;;4872725;29;20103;-87
2023/11/15 21:20:55;;;;;;;1.00;0.90;;;;;;;;;;4878214;29;20057;-88
2023/11/15 21:24:10;;;;;;;1.00;0.80;;;;;;;;;;4896988;29;20033;-90
2023/11/15 21:27:04;;;;;;;1.10;0.88;;;;;;;;;;4898961;29;20017;-91
2023/11/15 21:38:35;;;;;;;1.42;1.10;;;;;;;;;;4946160;28;20073;-89